createdAt,value
2023-01-19T00:03:30.452Z,8.41
2023-01-19T00:08:34.684Z,8.63
2023-01-19T00:13:37.492Z,8.65
2023-01-19T00:18:40.117Z,8.67
2023-01-19T00:23:47.145Z,8.68
2023-01-19T00:28:50.344Z,8.66
2023-01-19T00:33:53.190Z,7.98
2023-01-19T00:38:55.869Z,5.99
2023-01-19T00:43:58.460Z,4.96
2023-01-19T00:49:01.162Z,5.76
2023-01-19T00:54:04.845Z,6.98
2023-01-19T00:59:07.513Z,7.59
2023-01-19T01:04:12.090Z,7.92
2023-01-19T01:09:14.951Z,8.24
2023-01-19T01:14:18.270Z,8.43
2023-01-19T01:19:21.333Z,8.43
2023-01-19T01:24:23.905Z,8.09
2023-01-19T01:29:26.575Z,6.18
2023-01-19T01:34:29.158Z,4.76
2023-01-19T01:39:31.715Z,4.63
2023-01-19T01:44:57.493Z,6.13
2023-01-19T01:50:13.069Z,7.02
2023-01-19T01:55:18.591Z,7.50
2023-01-19T02:00:21.618Z,7.93
2023-01-19T02:05:28.231Z,8.38
2023-01-19T02:10:50.272Z,8.74
2023-01-19T02:15:59.416Z,7.84
2023-01-19T02:21:26.370Z,5.77
2023-01-19T02:26:38.317Z,4.42
2023-01-19T02:31:41.428Z,4.05
2023-01-19T02:37:07.576Z,5.33
2023-01-19T02:42:18.836Z,6.64
2023-01-19T02:47:21.809Z,7.36
2023-01-19T02:52:26.205Z,7.85
2023-01-19T02:57:50.194Z,8.27
2023-01-19T03:02:59.263Z,8.44
2023-01-19T03:08:39.643Z,7.67
2023-01-19T03:13:57.895Z,5.62
2023-01-19T03:19:13.166Z,4.45
2023-01-19T03:24:19.313Z,4.09
2023-01-19T03:29:24.557Z,4.65
2023-01-19T03:34:28.915Z,5.65
2023-01-19T03:39:32.001Z,6.37
2023-01-19T03:44:38.411Z,6.48
2023-01-19T03:49:44.311Z,7.14
2023-01-19T03:54:46.899Z,7.58
2023-01-19T03:59:49.624Z,8.19
2023-01-19T04:04:52.225Z,8.51
2023-01-19T04:09:54.772Z,7.82
2023-01-19T04:14:57.322Z,6.05
2023-01-19T04:20:00.447Z,4.88
2023-01-19T04:25:03.298Z,4.63
2023-01-19T04:30:06.919Z,6.12
2023-01-19T04:35:09.700Z,7.11
2023-01-19T04:40:12.697Z,7.87
2023-01-19T04:45:15.423Z,8.30
2023-01-19T04:50:18.596Z,7.85
2023-01-19T04:55:21.443Z,5.90
2023-01-19T05:00:24.137Z,4.61
2023-01-19T05:05:27.375Z,4.42
2023-01-19T05:10:30.003Z,6.06
2023-01-19T05:15:32.603Z,6.89
2023-01-19T05:20:35.207Z,7.24
2023-01-19T05:25:37.814Z,7.65
2023-01-19T05:30:40.412Z,7.21
2023-01-19T05:35:43.132Z,5.50
2023-01-19T05:40:45.726Z,4.38
2023-01-19T05:45:48.264Z,4.17
2023-01-19T05:50:51.053Z,5.68
2023-01-19T05:55:59.179Z,6.22
2023-01-19T06:01:05.398Z,6.67
2023-01-19T06:06:08.172Z,7.21
2023-01-19T06:11:11.661Z,7.46
2023-01-19T06:16:14.552Z,7.56
2023-01-19T06:21:17.426Z,7.64
2023-01-19T06:26:20.068Z,7.58
2023-01-19T06:31:22.851Z,5.95
2023-01-19T06:36:25.660Z,4.47
2023-01-19T06:41:28.290Z,3.52
2023-01-19T06:46:31.358Z,3.42
2023-01-19T06:51:34.196Z,4.86
2023-01-19T06:56:37.040Z,5.85
2023-01-19T07:01:40.641Z,6.50
2023-01-19T07:06:43.473Z,6.97
2023-01-19T07:11:47.021Z,7.15
2023-01-19T07:16:49.706Z,6.49
2023-01-19T07:21:52.407Z,4.89
2023-01-19T07:26:54.978Z,3.83
2023-01-19T07:31:57.822Z,3.74
2023-01-19T07:37:00.710Z,5.26
2023-01-19T07:42:03.498Z,6.09
2023-01-19T07:47:07.696Z,6.48
2023-01-19T07:52:10.790Z,6.82
2023-01-19T07:57:13.780Z,7.06
2023-01-19T08:02:17.444Z,6.83
2023-01-19T08:07:20.375Z,6.97
2023-01-19T08:12:22.963Z,7.17
2023-01-19T08:17:25.604Z,7.21
2023-01-19T08:22:28.514Z,7.43
2023-01-19T08:27:31.226Z,7.69
2023-01-19T08:32:33.961Z,7.79
2023-01-19T08:37:36.733Z,6.82
2023-01-19T08:42:39.763Z,5.20
2023-01-19T08:47:42.866Z,4.22
2023-01-19T08:52:45.702Z,4.23
2023-01-19T08:57:52.611Z,5.78
2023-01-19T09:02:56.541Z,6.71
2023-01-19T09:07:59.322Z,7.23
2023-01-19T09:13:06.954Z,7.67
2023-01-19T09:18:21.515Z,7.99
2023-01-19T09:23:25.481Z,8.26
2023-01-19T09:28:29.332Z,7.86
2023-01-19T09:33:32.105Z,6.13
2023-01-19T09:38:34.669Z,5.07
2023-01-19T09:43:47.991Z,5.07
2023-01-19T09:48:50.599Z,6.65
2023-01-19T09:54:04.996Z,7.48
2023-01-19T09:59:29.157Z,7.85
2023-01-19T10:04:43.567Z,8.35
2023-01-19T10:10:05.759Z,8.60
2023-01-19T10:15:53.525Z,6.95
2023-01-19T10:21:06.438Z,5.53
2023-01-19T10:26:36.286Z,5.37
2023-01-19T10:31:42.588Z,6.89
2023-01-19T10:36:48.118Z,7.53
2023-01-19T10:41:53.438Z,7.89
2023-01-19T10:46:58.959Z,8.20
2023-01-19T10:52:03.304Z,8.37
2023-01-19T10:57:10.157Z,8.58
2023-01-19T11:02:20.628Z,8.26
2023-01-19T11:07:26.950Z,6.61
2023-01-19T11:12:30.669Z,5.53
2023-01-19T11:17:33.662Z,5.48
2023-01-19T11:22:36.884Z,7.07
2023-01-19T11:27:50.342Z,8.09
2023-01-19T11:32:54.355Z,8.54
2023-01-19T11:38:27.239Z,8.82
2023-01-19T11:43:43.536Z,8.32
2023-01-19T11:49:02.094Z,6.58
2023-01-19T11:54:19.966Z,6.12
2023-01-19T11:59:25.014Z,7.57
2023-01-19T12:04:39.301Z,8.31
2023-01-19T12:09:47.389Z,8.57
2023-01-19T12:15:11.920Z,8.85
2023-01-19T12:20:52.131Z,7.76
2023-01-19T12:26:03.547Z,6.23
2023-01-19T12:31:06.332Z,5.40
2023-01-19T12:36:27.642Z,5.28
2023-01-19T12:41:31.771Z,6.71
2023-01-19T12:46:34.939Z,7.51
2023-01-19T12:51:38.159Z,8.33
2023-01-19T12:56:42.893Z,8.85
2023-01-19T13:02:24.074Z,8.94
2023-01-19T13:07:26.566Z,7.05
2023-01-19T13:12:29.357Z,5.81
2023-01-19T13:17:54.056Z,5.03
2023-01-19T13:23:24.622Z,5.13
2023-01-19T13:28:41.518Z,6.87
2023-01-19T13:34:04.123Z,7.81
2023-01-19T13:39:16.579Z,8.41
2023-01-19T13:44:23.715Z,8.75
2023-01-19T13:49:32.742Z,8.70
2023-01-19T13:54:35.632Z,8.71
2023-01-19T13:59:38.177Z,8.68
2023-01-19T14:04:40.745Z,8.90
2023-01-19T14:09:43.451Z,8.54
2023-01-19T14:14:48.137Z,6.73
2023-01-19T14:19:53.316Z,5.56
2023-01-19T14:24:56.009Z,5.04
2023-01-19T14:30:20.451Z,6.44
2023-01-19T14:35:25.042Z,7.44
2023-01-19T14:40:27.896Z,8.02
2023-01-19T14:45:36.116Z,8.37
2023-01-19T14:50:42.846Z,8.46
2023-01-19T14:55:55.910Z,8.59
2023-01-19T15:00:58.658Z,8.89
2023-01-19T15:06:04.186Z,8.99
2023-01-19T15:11:11.828Z,7.45
2023-01-19T15:16:14.770Z,5.90
2023-01-19T15:21:20.000Z,4.95
2023-01-19T15:26:24.911Z,5.02
2023-01-19T15:31:27.672Z,7.16
2023-01-19T15:36:30.495Z,8.07
2023-01-19T15:41:33.623Z,8.59
2023-01-19T15:46:36.901Z,8.30
2023-01-19T15:51:39.556Z,6.44
2023-01-19T15:56:42.708Z,5.32
2023-01-19T16:01:45.574Z,5.26
2023-01-19T16:06:50.096Z,6.74
2023-01-19T16:11:56.898Z,7.56
2023-01-19T16:17:00.894Z,8.01
2023-01-19T16:22:05.612Z,8.37
2023-01-19T16:27:08.850Z,8.70
2023-01-19T16:32:12.465Z,8.26
2023-01-19T16:37:15.126Z,6.43
2023-01-19T16:42:21.127Z,5.08
2023-01-19T16:47:23.974Z,4.87
2023-01-19T16:52:26.618Z,5.97
2023-01-19T16:57:29.505Z,6.79
2023-01-19T17:02:32.126Z,7.33
2023-01-19T17:07:35.048Z,7.71
2023-01-19T17:19:21.874Z,8.34
2023-01-19T17:24:25.018Z,8.41
2023-01-19T17:29:28.236Z,8.58
2023-01-19T17:34:31.011Z,8.13
2023-01-19T17:39:33.759Z,6.18
2023-01-19T17:44:36.349Z,4.86
2023-01-19T17:49:39.361Z,4.68
2023-01-19T17:54:41.945Z,6.11
2023-01-19T17:59:44.582Z,6.82
2023-01-19T18:04:47.175Z,7.26
2023-01-19T18:09:51.715Z,7.73
2023-01-19T18:14:54.275Z,8.09
2023-01-19T18:19:57.298Z,8.34
2023-01-19T18:25:01.543Z,8.64
2023-01-19T18:30:04.953Z,8.19
2023-01-19T18:35:08.363Z,6.40
2023-01-19T18:40:12.758Z,5.23
2023-01-19T18:45:16.119Z,5.03
2023-01-19T18:50:19.072Z,6.44
2023-01-19T18:55:21.730Z,7.46
2023-01-19T19:00:24.392Z,7.95
2023-01-19T19:05:27.071Z,8.30
2023-01-19T19:10:30.113Z,8.56
2023-01-19T19:15:34.330Z,8.17
2023-01-19T19:20:40.175Z,6.46
2023-01-19T19:25:42.813Z,5.31
2023-01-19T19:30:46.465Z,5.11
2023-01-19T19:35:56.352Z,6.25
2023-01-19T19:41:04.123Z,7.14
2023-01-19T19:46:09.516Z,7.87
2023-01-19T19:51:19.387Z,8.38
2023-01-19T19:56:24.231Z,8.89
2023-01-19T20:01:32.501Z,7.83
2023-01-19T20:06:38.914Z,6.19
2023-01-19T20:11:43.965Z,5.23
2023-01-19T20:16:46.659Z,5.20
2023-01-19T20:21:50.017Z,6.41
2023-01-19T20:26:53.183Z,7.44
2023-01-19T20:31:59.996Z,8.22
2023-01-19T20:37:04.696Z,8.65
2023-01-19T20:42:13.683Z,8.90
2023-01-19T20:47:21.684Z,8.25
2023-01-19T20:52:26.414Z,6.10
2023-01-19T20:57:31.148Z,4.87
2023-01-19T21:02:33.818Z,4.76
2023-01-19T21:07:36.908Z,6.99
2023-01-19T21:12:39.668Z,8.44
2023-01-19T21:17:45.199Z,9.03
2023-01-19T21:22:48.243Z,7.96
2023-01-19T21:27:51.330Z,6.13
2023-01-19T21:32:55.139Z,5.05
2023-01-19T21:37:58.310Z,5.43
2023-01-19T21:43:01.088Z,8.02
2023-01-19T21:48:03.714Z,9.10
2023-01-19T21:53:11.290Z,7.74
2023-01-19T21:58:13.981Z,6.10
2023-01-19T22:03:16.829Z,5.14
2023-01-19T22:08:19.440Z,5.63
2023-01-19T22:13:22.032Z,8.22
2023-01-19T22:18:24.686Z,9.03
2023-01-19T22:23:27.386Z,8.15
2023-01-19T22:28:29.937Z,6.42
2023-01-19T22:33:36.013Z,5.38
2023-01-19T22:38:40.116Z,5.66
2023-01-19T22:43:43.582Z,8.18
2023-01-19T22:48:48.799Z,8.82
2023-01-19T22:53:51.877Z,7.47
2023-01-19T22:58:55.394Z,5.96
2023-01-19T23:03:58.032Z,4.97
2023-01-19T23:09:04.521Z,5.31
2023-01-19T23:14:11.557Z,7.21
2023-01-19T23:19:16.853Z,8.12
2023-01-19T23:24:20.829Z,8.73
2023-01-19T23:29:23.750Z,8.18
2023-01-19T23:34:26.751Z,6.32
2023-01-19T23:39:29.534Z,6.16
2023-01-19T23:44:32.102Z,7.72
2023-01-19T23:49:34.661Z,8.25
2023-01-19T23:54:37.317Z,8.58
2023-01-19T23:59:40.047Z,8.10
